createdAt,value
2022-08-20T00:02:01.569Z,6.03
2022-08-20T00:04:49.354Z,5.78
2022-08-20T00:07:37.458Z,6.05
2022-08-20T00:10:26.268Z,5.60
2022-08-20T00:13:18.174Z,5.97
2022-08-20T00:16:07.274Z,5.55
2022-08-20T00:18:57.510Z,5.38
2022-08-20T00:21:39.266Z,4.82
2022-08-20T00:24:27.444Z,4.75
2022-08-20T00:27:09.337Z,5.28
2022-08-20T00:29:57.532Z,5.70
2022-08-20T00:32:58.276Z,5.40
2022-08-20T00:35:50.510Z,5.03
2022-08-20T00:38:39.288Z,4.95
2022-08-20T00:41:27.480Z,4.68
2022-08-20T00:44:26.292Z,4.63
2022-08-20T00:47:14.548Z,4.57
2022-08-20T00:50:02.316Z,4.82
2022-08-20T00:52:57.000Z,4.13
2022-08-20T00:55:45.398Z,4.65
2022-08-20T00:58:33.496Z,4.38
2022-08-20T01:01:23.377Z,4.20
2022-08-20T01:04:12.531Z,3.92
2022-08-20T01:06:55.345Z,4.20
2022-08-20T01:09:57.731Z,5.43
2022-08-20T01:12:40.290Z,4.50
2022-08-20T01:15:31.907Z,4.38
2022-08-20T01:18:14.300Z,4.38
2022-08-20T01:21:05.540Z,4.22
2022-08-20T01:24:00.316Z,4.35
2022-08-20T01:26:53.312Z,5.10
2022-08-20T01:29:42.516Z,4.22
2022-08-20T01:32:37.298Z,4.80
2022-08-20T01:35:27.507Z,4.35
2022-08-20T01:38:09.384Z,5.00
2022-08-20T01:41:28.409Z,4.15
2022-08-20T01:44:19.345Z,4.50
2022-08-20T01:47:17.452Z,4.95
2022-08-20T01:50:09.316Z,3.75
2022-08-20T01:53:08.570Z,4.55
2022-08-20T01:55:57.308Z,4.60
2022-08-20T01:58:49.609Z,4.30
2022-08-20T02:01:46.163Z,4.20
2022-08-20T02:04:34.454Z,4.47
2022-08-20T02:07:22.383Z,4.78
2022-08-20T02:10:11.549Z,4.03
2022-08-20T02:12:53.441Z,4.68
2022-08-20T02:15:43.113Z,4.53
2022-08-20T02:18:27.306Z,4.57
2022-08-20T02:21:15.463Z,4.60
2022-08-20T02:24:10.352Z,4.40
2022-08-20T02:26:53.411Z,5.05
2022-08-20T02:29:42.424Z,4.80
2022-08-20T02:32:37.356Z,4.88
2022-08-20T02:35:34.375Z,5.45
2022-08-20T02:38:24.532Z,5.15
2022-08-20T02:41:13.339Z,5.97
2022-08-20T02:44:01.466Z,5.65
2022-08-20T02:46:43.399Z,6.00
2022-08-20T02:49:31.585Z,5.60
2022-08-20T02:52:14.352Z,5.15
2022-08-20T02:55:02.487Z,6.45
2022-08-20T02:57:44.420Z,5.25
2022-08-20T03:00:37.950Z,5.45
2022-08-20T03:03:21.372Z,5.85
2022-08-20T03:06:10.549Z,6.57
2022-08-20T03:09:00.349Z,5.78
2022-08-20T03:11:49.286Z,5.88
2022-08-20T03:14:38.393Z,5.20
2022-08-20T03:17:26.500Z,5.35
2022-08-20T03:20:23.944Z,5.72
2022-08-20T03:23:19.400Z,5.93
2022-08-20T03:26:10.681Z,6.88
2022-08-20T03:28:59.347Z,5.72
2022-08-20T03:31:54.364Z,6.15
2022-08-20T03:34:49.366Z,6.18
2022-08-20T03:37:39.476Z,5.68
2022-08-20T03:40:29.566Z,5.82
2022-08-20T03:43:20.376Z,6.15
2022-08-20T03:46:02.509Z,5.80
2022-08-20T03:49:00.575Z,6.45
2022-08-20T03:51:58.198Z,6.22
2022-08-20T03:54:47.443Z,6.03
2022-08-20T03:57:35.712Z,6.50
2022-08-20T04:00:42.351Z,6.60
2022-08-20T04:03:31.593Z,5.97
2022-08-20T04:06:20.368Z,5.85
2022-08-20T04:09:09.666Z,5.85
2022-08-20T04:11:53.396Z,6.30
2022-08-20T04:14:41.637Z,6.78
2022-08-20T04:17:25.366Z,6.45
2022-08-20T04:20:15.568Z,6.53
2022-08-20T04:22:58.575Z,6.93
2022-08-20T04:25:48.620Z,6.47
2022-08-20T04:28:33.362Z,6.57
2022-08-20T04:31:28.430Z,6.72
2022-08-20T04:34:25.452Z,6.85
2022-08-20T04:37:16.571Z,7.20
2022-08-20T04:40:22.383Z,6.28
2022-08-20T04:43:12.590Z,6.95
2022-08-20T04:46:01.408Z,7.30
2022-08-20T04:48:50.296Z,6.50
2022-08-20T04:51:33.439Z,6.85
2022-08-20T04:54:21.588Z,7.03
2022-08-20T04:57:03.380Z,6.85
2022-08-20T04:59:51.726Z,6.93
2022-08-20T05:02:33.404Z,7.20
2022-08-20T05:05:22.606Z,7.72
2022-08-20T05:08:05.485Z,7.90
2022-08-20T05:11:32.633Z,7.07
2022-08-20T05:14:13.363Z,7.47
2022-08-20T05:17:01.548Z,6.55
2022-08-20T05:19:50.383Z,7.40
2022-08-20T05:22:38.522Z,8.27
2022-08-20T05:25:28.392Z,6.82
2022-08-20T05:28:19.525Z,7.03
2022-08-20T05:31:08.431Z,6.80
2022-08-20T05:33:57.856Z,7.32
2022-08-20T05:36:48.286Z,7.32
2022-08-20T05:39:35.493Z,8.02
2022-08-20T05:42:27.404Z,7.55
2022-08-20T05:45:11.073Z,7.28
2022-08-20T05:47:59.485Z,7.95
2022-08-20T05:50:45.580Z,8.02
2022-08-20T05:53:33.420Z,7.03
2022-08-20T05:56:15.588Z,7.93
2022-08-20T05:59:12.480Z,7.63
2022-08-20T06:01:54.272Z,8.13
2022-08-20T06:04:42.499Z,6.97
2022-08-20T06:07:30.634Z,8.02
2022-08-20T06:10:20.508Z,7.60
2022-08-20T06:13:09.613Z,7.25
2022-08-20T06:16:03.411Z,7.75
2022-08-20T06:18:54.635Z,8.02
2022-08-20T06:21:39.438Z,7.90
2022-08-20T06:24:27.656Z,7.80
2022-08-20T06:27:16.474Z,7.28
2022-08-20T06:29:58.627Z,8.40
2022-08-20T06:32:55.476Z,8.50
2022-08-20T06:35:44.643Z,8.82
2022-08-20T06:38:26.484Z,8.75
2022-08-20T06:41:14.636Z,8.00
2022-08-20T06:44:03.419Z,9.63
2022-08-20T06:46:52.644Z,8.52
2022-08-20T06:49:42.432Z,9.02
2022-08-20T06:52:52.759Z,8.63
2022-08-20T06:55:39.436Z,9.75
2022-08-20T06:58:38.639Z,9.00
2022-08-20T07:01:21.543Z,8.70
2022-08-20T07:04:09.673Z,10.38
2022-08-20T07:06:52.533Z,10.75
2022-08-20T07:09:40.619Z,10.32
2022-08-20T07:12:22.449Z,10.80
2022-08-20T07:15:12.663Z,10.35
2022-08-20T07:18:01.216Z,10.02
2022-08-20T07:20:50.576Z,10.82
2022-08-20T07:23:34.419Z,10.13
2022-08-20T07:26:22.878Z,11.90
2022-08-20T07:29:11.499Z,12.38
2022-08-20T07:32:23.463Z,11.55
2022-08-20T07:35:26.569Z,12.02
2022-08-20T07:38:24.055Z,11.57
2022-08-20T07:41:16.447Z,12.15
2022-08-20T07:44:04.758Z,11.67
2022-08-20T07:46:46.499Z,11.52
2022-08-20T07:49:34.596Z,10.20
2022-08-20T07:52:16.489Z,9.93
2022-08-20T07:55:04.673Z,10.88
2022-08-20T07:57:47.480Z,10.80
2022-08-20T08:00:35.806Z,10.70
2022-08-20T08:03:18.445Z,9.23
2022-08-20T08:06:07.671Z,8.73
2022-08-20T08:08:56.454Z,8.20
2022-08-20T08:11:48.956Z,9.02
2022-08-20T08:14:48.451Z,7.97
2022-08-20T08:17:37.475Z,8.88
2022-08-20T08:20:22.638Z,8.98
2022-08-20T08:23:10.545Z,7.85
2022-08-20T08:26:06.649Z,8.52
2022-08-20T08:29:11.455Z,8.00
2022-08-20T08:32:08.486Z,8.45
2022-08-20T08:35:03.471Z,8.30
2022-08-20T08:37:51.637Z,8.80
2022-08-20T08:40:40.472Z,7.65
2022-08-20T08:43:31.758Z,7.30
2022-08-20T08:46:24.473Z,6.20
2022-08-20T08:49:14.666Z,6.95
2022-08-20T08:51:59.477Z,6.75
2022-08-20T08:54:59.471Z,6.07
2022-08-20T08:57:47.723Z,6.30
2022-08-20T09:00:37.471Z,6.55
2022-08-20T09:03:46.714Z,5.68
2022-08-20T09:06:32.566Z,5.70
2022-08-20T09:09:27.750Z,5.25
2022-08-20T09:12:12.484Z,5.32
2022-08-20T09:15:08.556Z,5.32
2022-08-20T09:17:56.766Z,4.68
2022-08-20T09:20:48.515Z,3.80
2022-08-20T09:23:38.725Z,3.40
2022-08-20T09:26:29.267Z,3.03
2022-08-20T09:29:17.720Z,3.10
2022-08-20T09:32:20.850Z,3.67
2022-08-20T09:35:09.808Z,2.35
2022-08-20T09:37:51.571Z,2.95
2022-08-20T09:40:41.691Z,3.15
2022-08-20T09:43:29.491Z,3.25
2022-08-20T09:46:11.680Z,2.55
2022-08-20T09:49:06.520Z,2.58
2022-08-20T09:51:56.705Z,2.15
2022-08-20T09:54:46.864Z,2.90
2022-08-20T09:57:37.741Z,2.22
2022-08-20T10:00:33.517Z,2.05
2022-08-20T10:03:22.683Z,2.50
2022-08-20T10:06:11.514Z,2.42
2022-08-20T10:08:59.661Z,2.08
2022-08-20T10:11:41.504Z,2.15
2022-08-20T10:14:32.013Z,1.88
2022-08-20T10:17:13.557Z,2.30
2022-08-20T10:20:01.780Z,3.10
2022-08-20T10:22:43.536Z,2.88
2022-08-20T10:25:31.644Z,2.53
2022-08-20T10:28:13.652Z,2.75
2022-08-20T10:31:04.711Z,3.00
2022-08-20T10:33:59.608Z,3.08
2022-08-20T10:36:49.648Z,3.08
2022-08-20T10:39:37.543Z,2.75
2022-08-20T10:42:25.717Z,2.67
2022-08-20T10:45:14.529Z,3.17
2022-08-20T10:48:07.614Z,2.83
2022-08-20T10:51:04.518Z,2.85
2022-08-20T10:53:52.676Z,2.38
2022-08-20T10:56:34.531Z,2.38
2022-08-20T10:59:22.742Z,2.70
2022-08-20T11:02:04.561Z,2.55
2022-08-20T11:04:54.734Z,3.13
2022-08-20T11:08:08.496Z,2.97
2022-08-20T11:10:47.752Z,3.03
2022-08-20T11:13:29.554Z,2.33
2022-08-20T11:16:17.734Z,2.85
2022-08-20T11:19:07.556Z,3.28
2022-08-20T11:21:57.768Z,3.13
2022-08-20T11:24:53.516Z,2.80
2022-08-20T11:27:44.268Z,2.88
2022-08-20T11:30:35.609Z,2.53
2022-08-20T11:33:30.544Z,2.15
2022-08-20T11:36:25.610Z,2.83
2022-08-20T11:39:15.716Z,2.67
2022-08-20T11:41:57.558Z,3.50
2022-08-20T11:44:45.697Z,3.25
2022-08-20T11:47:32.616Z,2.88
2022-08-20T11:50:23.806Z,2.85
2022-08-20T11:53:05.560Z,3.30
2022-08-20T11:55:57.720Z,2.90
2022-08-20T11:58:40.549Z,3.05
2022-08-20T12:01:28.775Z,3.00
2022-08-20T12:04:17.551Z,3.25
2022-08-20T12:07:14.776Z,2.85
2022-08-20T12:10:09.544Z,2.78
2022-08-20T12:12:59.984Z,2.25
2022-08-20T12:15:51.545Z,2.70
2022-08-20T12:18:39.694Z,2.53
2022-08-20T12:21:21.572Z,2.22
2022-08-20T12:24:09.833Z,2.40
2022-08-20T12:26:51.572Z,2.50
2022-08-20T12:29:42.813Z,2.10
2022-08-20T12:32:39.591Z,2.78
2022-08-20T12:35:27.821Z,1.88
2022-08-20T12:38:10.592Z,2.63
2022-08-20T12:40:58.825Z,2.00
2022-08-20T12:43:40.593Z,2.20
2022-08-20T12:46:30.772Z,2.55
2022-08-20T12:49:18.576Z,1.65
2022-08-20T12:52:06.716Z,1.67
2022-08-20T12:54:54.634Z,2.10
2022-08-20T12:57:41.826Z,2.05
2022-08-20T13:00:39.608Z,1.90
2022-08-20T13:03:32.733Z,1.70
2022-08-20T13:06:28.634Z,2.03
2022-08-20T13:09:16.804Z,1.80
2022-08-20T13:11:58.584Z,2.10
2022-08-20T13:14:46.732Z,1.50
2022-08-20T13:17:39.033Z,1.73
2022-08-20T13:20:31.724Z,2.20
2022-08-20T13:23:23.617Z,1.80
2022-08-20T13:26:05.859Z,1.60
2022-08-20T13:29:00.582Z,1.70
2022-08-20T13:31:56.589Z,1.73
2022-08-20T13:34:51.578Z,1.85
2022-08-20T13:37:41.777Z,2.28
2022-08-20T13:40:30.601Z,1.88
2022-08-20T13:43:18.848Z,1.88
2022-08-20T13:46:07.609Z,1.50
2022-08-20T13:48:55.812Z,1.45
2022-08-20T13:51:43.618Z,2.10
2022-08-20T13:54:30.228Z,1.70
2022-08-20T13:57:20.602Z,1.83
2022-08-20T14:00:05.667Z,1.45
2022-08-20T14:02:53.669Z,1.90
2022-08-20T14:05:35.782Z,2.20
2022-08-20T14:08:26.705Z,1.70
2022-08-20T14:11:12.732Z,1.58
2022-08-20T14:14:10.598Z,1.40
2022-08-20T14:16:58.849Z,1.70
2022-08-20T14:19:46.598Z,1.77
2022-08-20T14:22:36.580Z,1.83
2022-08-20T14:25:26.670Z,1.90
2022-08-20T14:28:21.822Z,1.73
2022-08-20T14:31:09.678Z,1.67
2022-08-20T14:34:04.667Z,1.73
2022-08-20T14:36:53.622Z,2.40
2022-08-20T14:39:35.809Z,1.67
2022-08-20T14:42:24.637Z,1.55
2022-08-20T14:45:07.873Z,2.03
2022-08-20T14:47:57.747Z,1.90
2022-08-20T14:50:41.835Z,1.83
2022-08-20T14:53:30.633Z,2.13
2022-08-20T14:56:12.843Z,2.30
2022-08-20T14:59:07.647Z,1.73
2022-08-20T15:01:57.803Z,1.98
2022-08-20T15:04:45.634Z,1.90
2022-08-20T15:07:44.859Z,1.80
2022-08-20T15:10:38.757Z,1.90
2022-08-20T15:13:26.905Z,1.80
2022-08-20T15:16:14.628Z,1.80
2022-08-20T15:19:04.855Z,1.80
2022-08-20T15:21:46.706Z,1.88
2022-08-20T15:24:34.874Z,1.65
2022-08-20T15:27:22.854Z,1.77
2022-08-20T15:30:13.894Z,2.78
2022-08-20T15:33:09.670Z,1.55
2022-08-20T15:35:59.878Z,2.00
2022-08-20T15:38:41.644Z,1.90
2022-08-20T15:41:34.794Z,1.92
2022-08-20T15:44:22.730Z,1.77
2022-08-20T15:47:26.858Z,1.98
2022-08-20T15:50:18.753Z,1.95
2022-08-20T15:53:17.856Z,2.00
2022-08-20T15:56:13.664Z,30.35
2022-08-20T15:59:15.714Z,2.20
2022-08-20T16:02:12.972Z,2.45
2022-08-20T16:05:28.696Z,1.98
2022-08-20T16:08:35.010Z,2.00
2022-08-20T16:11:36.712Z,2.22
2022-08-20T16:14:29.091Z,2.55
2022-08-20T16:17:13.707Z,2.15
2022-08-20T16:20:09.889Z,1.88
2022-08-20T16:22:54.459Z,2.20
2022-08-20T16:25:57.905Z,2.28
2022-08-20T16:29:00.672Z,2.40
2022-08-20T16:31:55.679Z,2.40
2022-08-20T16:34:56.670Z,2.03
2022-08-20T16:37:52.711Z,2.70
2022-08-20T16:40:49.817Z,2.40
2022-08-20T16:43:42.816Z,2.72
2022-08-20T16:46:26.700Z,4.43
2022-08-20T16:49:18.854Z,2.30
2022-08-20T16:52:01.685Z,3.78
2022-08-20T16:54:51.939Z,2.03
2022-08-20T16:57:35.707Z,3.78
2022-08-20T17:00:35.516Z,2.30
2022-08-20T17:03:40.347Z,2.08
2022-08-20T17:06:35.023Z,2.20
2022-08-20T17:09:47.735Z,2.70
2022-08-20T17:12:31.578Z,2.30
2022-08-20T17:15:36.674Z,2.78
2022-08-20T17:18:28.850Z,2.58
2022-08-20T17:21:19.719Z,2.22
2022-08-20T17:24:16.735Z,2.25
2022-08-20T17:27:10.449Z,2.13
2022-08-20T17:30:01.843Z,1.80
2022-08-20T17:33:12.703Z,2.25
2022-08-20T17:36:02.912Z,2.70
2022-08-20T17:38:54.719Z,1.92
2022-08-20T17:41:43.740Z,2.30
2022-08-20T17:44:30.176Z,2.47
2022-08-20T17:47:26.769Z,3.05
2022-08-20T17:50:18.940Z,2.60
2022-08-20T17:53:13.715Z,2.45
2022-08-20T17:56:06.460Z,2.78
2022-08-20T17:59:03.404Z,2.28
2022-08-20T18:01:53.909Z,2.97
2022-08-20T18:04:43.731Z,3.03
2022-08-20T18:07:38.870Z,2.22
2022-08-20T18:10:31.731Z,2.28
2022-08-20T18:13:19.313Z,2.33
2022-08-20T18:16:10.817Z,2.67
2022-08-20T18:19:09.899Z,2.35
2022-08-20T18:22:13.753Z,2.63
2022-08-20T18:25:08.998Z,2.00
2022-08-20T18:27:54.722Z,2.10
2022-08-20T18:30:42.904Z,2.08
2022-08-20T18:33:43.808Z,2.80
2022-08-20T18:36:34.903Z,2.65
2022-08-20T18:39:26.796Z,2.45
2022-08-20T18:42:33.946Z,3.58
2022-08-20T18:45:22.748Z,2.42
2022-08-20T18:48:13.946Z,3.25
2022-08-20T18:51:04.729Z,4.35
2022-08-20T18:53:55.998Z,3.35
2022-08-20T18:56:47.756Z,2.50
2022-08-20T18:59:31.149Z,3.60
2022-08-20T19:02:27.733Z,2.33
2022-08-20T19:05:13.886Z,2.88
2022-08-20T19:08:05.750Z,4.72
2022-08-20T19:10:55.012Z,2.45
2022-08-20T19:14:02.816Z,2.53
2022-08-20T19:16:57.015Z,2.40
2022-08-20T19:19:44.835Z,3.85
2022-08-20T19:22:33.147Z,6.07
2022-08-20T19:25:22.805Z,5.50
2022-08-20T19:28:28.151Z,5.90
2022-08-20T19:31:24.763Z,5.25
2022-08-20T19:34:23.812Z,3.00
2022-08-20T19:37:34.802Z,2.78
2022-08-20T19:40:30.997Z,3.13
2022-08-20T19:43:22.764Z,2.72
2022-08-20T19:46:04.996Z,3.53
2022-08-20T19:49:11.789Z,3.38
2022-08-20T19:52:12.915Z,2.25
2022-08-20T19:55:04.308Z,2.55
2022-08-20T19:57:52.306Z,2.80
2022-08-20T20:00:41.807Z,2.90
2022-08-20T20:03:32.962Z,2.90
2022-08-20T20:06:27.786Z,2.63
2022-08-20T20:09:27.998Z,3.08
2022-08-20T20:12:22.627Z,3.05
2022-08-20T20:15:13.944Z,3.28
2022-08-20T20:17:55.827Z,3.42
2022-08-20T20:20:57.728Z,3.35
2022-08-20T20:23:46.509Z,4.25
2022-08-20T20:26:39.936Z,3.35
2022-08-20T20:29:36.781Z,3.42
2022-08-20T20:32:35.805Z,3.65
2022-08-20T20:35:43.782Z,3.50
2022-08-20T20:38:34.977Z,4.05
2022-08-20T20:41:34.850Z,4.20
2022-08-20T20:44:32.880Z,4.53
2022-08-20T20:47:26.887Z,4.03
2022-08-20T20:50:18.995Z,4.25
2022-08-20T20:53:01.812Z,4.03
2022-08-20T20:56:01.982Z,4.32
2022-08-20T20:58:54.369Z,4.40
2022-08-20T21:01:45.732Z,4.32
2022-08-20T21:04:44.809Z,4.00
2022-08-20T21:07:34.009Z,4.60
2022-08-20T21:10:22.837Z,4.45
2022-08-20T21:13:12.092Z,4.47
2022-08-20T21:16:00.817Z,3.92
2022-08-20T21:18:51.027Z,4.10
2022-08-20T21:21:32.827Z,4.30
2022-08-20T21:24:27.893Z,4.43
2022-08-20T21:27:16.964Z,3.65
2022-08-20T21:30:05.870Z,3.50
2022-08-20T21:33:01.825Z,3.55
2022-08-20T21:35:58.907Z,3.50
2022-08-20T21:38:47.073Z,3.33
2022-08-20T21:41:29.743Z,2.78
2022-08-20T21:44:24.174Z,3.08
2022-08-20T21:47:06.838Z,2.72
2022-08-20T21:49:55.083Z,3.13
2022-08-20T21:52:38.858Z,2.60
2022-08-20T21:55:42.043Z,2.53
2022-08-20T21:58:23.825Z,2.50
2022-08-20T22:01:14.378Z,2.42
2022-08-20T22:04:02.817Z,2.78
2022-08-20T22:06:52.249Z,3.05
2022-08-20T22:09:42.864Z,2.47
2022-08-20T22:12:33.046Z,2.83
2022-08-20T22:15:22.828Z,2.60
2022-08-20T22:18:12.063Z,2.28
2022-08-20T22:21:00.901Z,2.08
2022-08-20T22:23:49.990Z,2.28
2022-08-20T22:26:33.841Z,2.30
2022-08-20T22:29:22.090Z,2.75
2022-08-20T22:32:03.848Z,2.45
2022-08-20T22:34:58.914Z,2.45
2022-08-20T22:37:47.855Z,2.10
2022-08-20T22:40:30.115Z,2.45
2022-08-20T22:43:20.872Z,2.10
2022-08-20T22:46:13.829Z,2.78
2022-08-20T22:49:03.046Z,2.50
2022-08-20T22:51:44.916Z,2.35
2022-08-20T22:54:33.047Z,2.40
2022-08-20T22:57:14.858Z,2.42
2022-08-20T23:00:05.047Z,2.42
2022-08-20T23:02:47.953Z,2.70
2022-08-20T23:05:39.987Z,2.13
2022-08-20T23:08:21.861Z,2.55
2022-08-20T23:11:13.966Z,2.30
2022-08-20T23:14:03.843Z,2.50
2022-08-20T23:16:56.087Z,2.65
2022-08-20T23:19:46.925Z,2.75
2022-08-20T23:22:34.977Z,2.63
2022-08-20T23:25:26.875Z,2.40
2022-08-20T23:28:16.874Z,1.92
2022-08-20T23:30:59.022Z,2.25
2022-08-20T23:33:55.854Z,2.30
2022-08-20T23:36:38.777Z,2.58
2022-08-20T23:39:27.963Z,2.33
2022-08-20T23:42:16.081Z,2.20
2022-08-20T23:45:04.859Z,1.90
2022-08-20T23:47:53.001Z,1.83
2022-08-20T23:50:44.861Z,2.10
2022-08-20T23:53:33.195Z,2.28
2022-08-20T23:56:21.861Z,2.13
2022-08-20T23:59:09.989Z,2.78
